Time;durP1;ratioP1;P1;durP2;ratioP2;P2;SDS_P1;SDS_P2;PMS_P1;PMS_P2;Temp;Humidity;BMP_temperature;BMP_pressure;BME280_temperature;BME280_humidity;BME280_pressure;Samples;Min_cycle;Max_cycle;Signal;HPM_P1;HPM_P2
2022/10/14 00:00:15;;;;;;;3.37;2.20;;;13.60;99.90;;;;;;5013671;28;20442;-64
2022/10/14 00:02:42;;;;;;;3.73;2.57;;;13.60;99.90;;;;;;5014342;28;20447;-64
2022/10/14 00:05:09;;;;;;;4.50;2.40;;;13.70;99.90;;;;;;5012524;28;20537;-64
2022/10/14 00:07:36;;;;;;;4.70;2.40;;;13.60;99.90;;;;;;5014050;28;20496;-64
2022/10/14 00:10:04;;;;;;;4.40;2.10;;;13.60;99.90;;;;;;5001984;28;20458;-64
2022/10/14 00:12:31;;;;;;;6.00;2.60;;;13.60;99.90;;;;;;4994295;28;20510;-63
2022/10/14 00:15:06;;;;;;;4.07;2.53;;;13.60;99.90;;;;;;5003109;28;20444;-65
2022/10/14 00:17:33;;;;;;;4.80;2.60;;;13.60;99.90;;;;;;5014242;28;20488;-64
2022/10/14 00:20:00;;;;;;;4.13;2.60;;;13.60;99.90;;;;;;5003047;28;20444;-63
2022/10/14 00:22:29;;;;;;;3.93;2.93;;;13.50;99.90;;;;;;4993854;28;20471;-64
2022/10/14 00:24:57;;;;;;;6.57;3.07;;;13.60;99.90;;;;;;4993364;28;20521;-65
2022/10/14 00:27:24;;;;;;;5.00;3.03;;;13.50;99.90;;;;;;4994460;28;20822;-64
2022/10/14 00:29:51;;;;;;;7.20;2.87;;;13.50;99.90;;;;;;5008251;28;20470;-64
2022/10/14 00:32:19;;;;;;;3.80;2.60;;;13.60;99.90;;;;;;5013933;28;20438;-63
2022/10/14 00:34:46;;;;;;;7.90;2.60;;;13.50;99.90;;;;;;4998876;28;20446;-64
2022/10/14 00:37:13;;;;;;;3.83;2.70;;;13.50;99.90;;;;;;4954249;28;1177437;-64
2022/10/14 00:39:40;;;;;;;6.03;2.90;;;13.50;99.90;;;;;;5006495;28;20523;-64
2022/10/14 00:42:12;;;;;;;4.27;2.90;;;13.60;99.90;;;;;;5014786;28;20443;-64
2022/10/14 00:45:04;;;;;;;5.37;3.00;;;13.60;99.90;;;;;;5001836;28;20451;-64
2022/10/14 00:47:33;;;;;;;3.60;3.00;;;13.60;99.90;;;;;;4995101;28;20474;-64
2022/10/14 00:50:01;;;;;;;4.70;3.17;;;13.60;99.90;;;;;;5007630;28;20487;-64
2022/10/14 00:52:29;;;;;;;4.47;3.60;;;13.60;99.90;;;;;;5014409;28;20442;-64
2022/10/14 00:55:04;;;;;;;5.07;2.80;;;13.60;99.90;;;;;;5000614;28;20471;-64
2022/10/14 00:57:32;;;;;;;4.80;3.00;;;13.50;99.90;;;;;;4994646;28;20439;-64
2022/10/14 01:00:04;;;;;;;5.80;3.67;;;13.60;99.90;;;;;;5005603;28;20454;-63
2022/10/14 01:02:31;;;;;;;4.90;3.53;;;13.60;99.90;;;;;;5014475;28;20442;-64
2022/10/14 01:05:02;;;;;;;3.83;2.73;;;13.60;99.90;;;;;;5001425;28;20914;-65
2022/10/14 01:07:40;;;;;;;5.57;3.37;;;13.60;99.90;;;;;;4994374;28;20498;-63
2022/10/14 01:10:16;;;;;;;7.17;3.60;;;13.70;99.90;;;;;;5005641;28;20475;-64
2022/10/14 01:12:58;;;;;;;8.30;3.17;;;13.70;99.90;;;;;;5007548;28;20514;-64
2022/10/14 01:15:35;;;;;;;5.77;4.47;;;13.70;99.90;;;;;;4994157;28;20447;-64
2022/10/14 01:18:15;;;;;;;6.53;3.93;;;13.70;99.90;;;;;;5000602;28;20449;-64
2022/10/14 01:21:00;;;;;;;9.90;4.40;;;13.70;99.90;;;;;;5013796;28;20569;-63
2022/10/14 01:24:03;;;;;;;5.57;2.93;;;13.70;99.90;;;;;;5002628;28;20482;-64
2022/10/14 01:27:03;;;;;;;3.23;2.40;;;13.70;99.90;;;;;;4992939;28;20479;-64
2022/10/14 01:30:06;;;;;;;3.30;2.30;;;13.70;99.90;;;;;;5011057;28;20447;-64
2022/10/14 01:32:43;;;;;;;3.97;2.00;;;13.60;99.90;;;;;;5011163;28;20487;-64
2022/10/14 01:35:19;;;;;;;3.70;2.80;;;13.60;99.90;;;;;;4993595;28;20478;-63
2022/10/14 01:37:52;;;;;;;4.80;3.03;;;13.60;99.90;;;;;;4995139;28;20553;-64
2022/10/14 01:40:25;;;;;;;4.30;2.80;;;13.60;99.90;;;;;;5013623;28;20854;-63
2022/10/14 01:42:53;;;;;;;3.70;2.60;;;13.50;99.90;;;;;;5010314;28;20443;-63
2022/10/14 01:45:23;;;;;;;4.83;2.73;;;13.50;99.90;;;;;;4993027;28;20487;-65
2022/10/14 01:47:54;;;;;;;7.60;5.17;;;13.50;99.90;;;;;;5013404;28;20439;-63
2022/10/14 01:50:25;;;;;;;5.00;3.07;;;13.50;99.90;;;;;;5013472;28;20439;-68
2022/10/14 01:52:58;;;;;;;2.80;1.63;;;13.40;99.90;;;;;;4993824;28;20447;-64
2022/10/14 01:55:30;;;;;;;3.00;1.93;;;13.40;99.90;;;;;;4993346;28;20475;-65
2022/10/14 01:57:58;;;;;;;2.37;1.10;;;13.30;99.90;;;;;;5001247;28;20439;-64
2022/10/14 02:00:25;;;;;;;2.73;1.10;;;13.30;99.90;;;;;;5013156;28;20439;-64
2022/10/14 02:02:54;;;;;;;3.30;1.10;;;13.10;99.90;;;;;;4992811;28;20502;-64
2022/10/14 02:05:26;;;;;;;3.83;1.10;;;13.10;99.90;;;;;;4993383;28;20483;-64
2022/10/14 02:07:59;;;;;;;3.43;1.20;;;13.20;99.90;;;;;;5008668;28;20546;-64
2022/10/14 02:10:41;;;;;;;4.00;1.47;;;13.20;99.90;;;;;;5013050;28;20995;-65
2022/10/14 02:13:23;;;;;;;4.73;1.30;;;13.20;99.90;;;;;;4992926;28;20518;-63
2022/10/14 02:15:58;;;;;;;2.67;1.23;;;13.20;99.90;;;;;;4992611;28;20566;-65
2022/10/14 02:18:34;;;;;;;3.33;1.30;;;13.20;99.90;;;;;;5007335;28;20435;-64
2022/10/14 02:21:17;;;;;;;3.50;2.50;;;13.20;99.90;;;;;;4993466;28;20431;-64
2022/10/14 02:23:54;;;;;;;4.23;3.50;;;13.20;99.90;;;;;;5012852;28;20447;-63
2022/10/14 02:26:22;;;;;;;7.03;4.53;;;13.30;99.90;;;;;;5008910;28;20544;-64
2022/10/14 02:28:51;;;;;;;7.13;6.30;;;13.30;99.90;;;;;;4993350;28;20454;-64
2022/10/14 02:31:20;;;;;;;11.87;7.80;;;13.30;99.90;;;;;;4996384;28;20520;-64
2022/10/14 02:33:53;;;;;;;6.83;5.37;;;13.30;99.90;;;;;;5013201;28;20517;-63
2022/10/14 02:36:23;;;;;;;4.50;2.93;;;13.30;99.90;;;;;;5005632;28;20463;-64
2022/10/14 02:38:53;;;;;;;3.27;2.03;;;13.30;99.90;;;;;;4993227;28;20895;-64
2022/10/14 02:41:22;;;;;;;2.70;1.53;;;13.30;99.90;;;;;;4996701;28;20462;-64
2022/10/14 02:43:52;;;;;;;3.27;1.43;;;13.30;99.90;;;;;;5012506;28;20447;-64
2022/10/14 02:46:24;;;;;;;3.83;2.17;;;13.30;99.90;;;;;;5007050;28;20475;-65
2022/10/14 02:48:54;;;;;;;3.27;1.83;;;13.20;99.90;;;;;;4991796;28;20443;-64
2022/10/14 02:51:21;;;;;;;2.40;1.57;;;13.20;99.90;;;;;;4995376;28;20501;-64
2022/10/14 02:53:53;;;;;;;2.77;1.73;;;13.20;99.90;;;;;;5012683;28;20446;-65
2022/10/14 02:56:20;;;;;;;3.53;1.97;;;13.10;99.90;;;;;;5008740;28;20519;-65
2022/10/14 02:58:47;;;;;;;6.37;1.80;;;13.10;99.90;;;;;;4997732;28;20939;-64
2022/10/14 03:01:14;;;;;;;2.60;1.80;;;13.20;99.90;;;;;;5011665;28;20592;-64
2022/10/14 03:03:43;;;;;;;3.07;1.80;;;13.20;99.90;;;;;;5011299;28;20446;-66
2022/10/14 03:06:12;;;;;;;3.83;1.73;;;13.20;99.90;;;;;;4992695;28;20479;-64
2022/10/14 03:08:41;;;;;;;2.73;1.50;;;13.20;99.90;;;;;;5000502;28;20430;-63
2022/10/14 03:11:13;;;;;;;5.37;2.10;;;13.20;99.90;;;;;;5012284;28;20901;-64
2022/10/14 03:13:40;;;;;;;2.30;1.43;;;13.20;99.90;;;;;;4995916;28;20447;-64
2022/10/14 03:16:07;;;;;;;2.70;1.77;;;13.20;99.90;;;;;;4992876;28;20517;-64
2022/10/14 03:18:35;;;;;;;3.87;1.87;;;13.20;99.90;;;;;;5006071;28;20443;-64
2022/10/14 03:21:07;;;;;;;3.37;2.00;;;13.20;99.90;;;;;;5012369;28;20985;-64
2022/10/14 03:23:35;;;;;;;2.43;1.63;;;13.20;99.90;;;;;;4997847;28;20439;-63
2022/10/14 03:26:02;;;;;;;2.73;1.40;;;13.20;99.90;;;;;;4992458;28;20534;-65
2022/10/14 03:28:30;;;;;;;3.10;1.73;;;13.20;99.90;;;;;;5004015;28;20442;-64
2022/10/14 03:30:57;;;;;;;4.10;1.97;;;13.20;99.90;;;;;;5010300;28;20435;-65
2022/10/14 03:33:26;;;;;;;2.33;1.43;;;13.10;99.90;;;;;;4996393;28;20814;-64
2022/10/14 03:35:53;;;;;;;4.93;1.97;;;13.10;99.90;;;;;;5011521;28;20953;-64
2022/10/14 03:38:20;;;;;;;2.70;1.50;;;13.10;99.90;;;;;;5015505;28;20496;-64
2022/10/14 03:40:49;;;;;;;4.73;2.43;;;13.10;99.90;;;;;;4998271;28;20444;-63
2022/10/14 03:43:16;;;;;;;5.27;1.80;;;13.10;99.90;;;;;;4996221;28;20579;-64
2022/10/14 03:45:44;;;;;;;2.10;1.20;;;13.00;99.90;;;;;;5008830;28;20458;-63
2022/10/14 03:48:14;;;;;;;2.50;1.40;;;12.90;99.90;;;;;;5015141;28;20901;-63
2022/10/14 03:50:41;;;;;;;4.33;1.30;;;12.90;99.90;;;;;;4975656;28;20439;-64
2022/10/14 03:53:08;;;;;;;3.03;1.53;;;12.90;99.90;;;;;;5013477;28;20443;-63
2022/10/14 03:55:35;;;;;;;3.60;2.17;;;12.90;99.90;;;;;;5015653;28;20474;-63
2022/10/14 03:58:04;;;;;;;2.43;1.47;;;12.90;99.90;;;;;;5002508;28;20922;-64
2022/10/14 04:00:32;;;;;;;2.63;1.47;;;12.90;99.90;;;;;;4995848;28;20443;-65
2022/10/14 04:03:01;;;;;;;2.50;1.50;;;12.90;99.90;;;;;;5005398;28;20501;-64
2022/10/14 04:05:32;;;;;;;3.07;1.60;;;12.80;99.90;;;;;;5015347;28;20438;-63
2022/10/14 04:07:59;;;;;;;3.53;1.70;;;12.80;99.90;;;;;;5004400;28;20993;-64
2022/10/14 04:10:26;;;;;;;2.87;1.77;;;12.80;99.90;;;;;;4995931;28;20436;-64
2022/10/14 04:12:58;;;;;;;2.33;1.70;;;12.80;99.90;;;;;;5003060;28;20497;-65
2022/10/14 04:15:27;;;;;;;7.10;2.93;;;12.80;99.90;;;;;;5001860;28;20523;-64
2022/10/14 04:17:55;;;;;;;3.47;2.63;;;12.90;99.90;;;;;;5003018;28;20439;-63
2022/10/14 04:20:23;;;;;;;3.83;3.33;;;12.80;99.90;;;;;;5015191;28;20443;-65
2022/10/14 04:22:50;;;;;;;3.67;2.43;;;12.80;99.90;;;;;;5007275;28;20506;-64
2022/10/14 04:25:17;;;;;;;3.17;2.20;;;12.70;99.90;;;;;;5000168;28;20446;-64
2022/10/14 04:27:46;;;;;;;3.00;1.80;;;12.80;99.90;;;;;;5014241;28;20868;-64
2022/10/14 04:30:13;;;;;;;2.80;1.87;;;12.70;99.90;;;;;;5008965;28;20854;-64
2022/10/14 04:32:42;;;;;;;4.20;2.40;;;12.70;99.90;;;;;;4995199;28;20448;-64
2022/10/14 04:35:10;;;;;;;5.23;3.20;;;12.70;99.90;;;;;;4998037;28;20457;-64
2022/10/14 04:37:37;;;;;;;3.23;2.10;;;12.70;99.90;;;;;;5014775;28;20475;-64
2022/10/14 04:40:09;;;;;;;3.80;2.77;;;12.70;99.90;;;;;;5010118;28;20447;-65
2022/10/14 04:42:36;;;;;;;3.30;2.37;;;12.70;99.90;;;;;;4995002;28;20440;-64
2022/10/14 04:45:04;;;;;;;3.73;3.10;;;12.70;99.90;;;;;;4996143;28;20443;-64
2022/10/14 04:47:31;;;;;;;3.30;2.13;;;12.80;99.90;;;;;;5014560;28;20482;-64
2022/10/14 04:49:59;;;;;;;3.17;2.30;;;12.80;99.90;;;;;;5012695;28;20442;-64
2022/10/14 04:52:27;;;;;;;3.33;2.50;;;12.70;99.90;;;;;;4995076;28;20506;-64
2022/10/14 04:54:54;;;;;;;18.33;13.20;;;12.80;99.90;;;;;;4994737;28;20444;-65
2022/10/14 04:57:21;;;;;;;9.53;6.93;;;12.80;99.90;;;;;;4994683;28;20440;-64
2022/10/14 04:59:50;;;;;;;4.90;3.17;;;12.80;99.90;;;;;;4995048;28;20440;-64
2022/10/14 05:02:19;;;;;;;4.37;3.33;;;12.70;99.90;;;;;;5008609;28;20831;-63
2022/10/14 05:04:46;;;;;;;4.23;3.33;;;12.70;99.90;;;;;;5014572;28;20779;-64
2022/10/14 05:07:15;;;;;;;4.43;2.77;;;12.70;99.90;;;;;;4992956;28;20478;-64
2022/10/14 05:09:44;;;;;;;4.00;2.80;;;12.70;99.90;;;;;;4994612;28;20509;-64
2022/10/14 05:12:13;;;;;;;5.73;4.93;;;12.70;99.90;;;;;;5009419;28;20862;-64
2022/10/14 05:14:40;;;;;;;7.13;4.40;;;12.70;99.90;;;;;;5014210;28;20446;-63
2022/10/14 05:17:07;;;;;;;4.33;3.93;;;12.70;99.90;;;;;;4997685;28;20498;-64
2022/10/14 05:19:39;;;;;;;5.00;2.90;;;12.70;99.90;;;;;;4994530;28;20486;-64
2022/10/14 05:22:06;;;;;;;4.83;3.57;;;12.70;99.90;;;;;;5003638;28;20838;-65
2022/10/14 05:24:34;;;;;;;4.73;3.83;;;12.60;99.90;;;;;;5013870;28;20443;-64
2022/10/14 05:27:01;;;;;;;4.07;3.33;;;12.60;99.90;;;;;;4998761;28;21009;-64
2022/10/14 05:29:28;;;;;;;4.50;3.40;;;12.70;99.90;;;;;;5009473;28;20434;-63
2022/10/14 05:31:55;;;;;;;4.10;3.20;;;12.70;99.90;;;;;;5010479;28;20443;-64
2022/10/14 05:34:22;;;;;;;4.30;3.33;;;12.70;99.90;;;;;;5012747;28;20435;-64
2022/10/14 05:36:49;;;;;;;4.53;3.97;;;12.70;99.90;;;;;;5009889;28;20597;-64
2022/10/14 05:39:16;;;;;;;5.90;3.47;;;12.70;99.90;;;;;;5012769;28;20454;-64
2022/10/14 05:41:45;;;;;;;6.27;4.00;;;12.70;99.90;;;;;;5010307;28;20442;-64
2022/10/14 05:44:12;;;;;;;8.80;3.43;;;12.70;99.90;;;;;;5012367;28;20470;-64
2022/10/14 05:46:39;;;;;;;6.90;3.80;;;12.80;99.90;;;;;;5009023;28;20486;-65
2022/10/14 05:49:06;;;;;;;4.43;3.40;;;12.80;99.90;;;;;;5012444;28;20540;-64
2022/10/14 05:51:33;;;;;;;4.67;3.70;;;12.80;99.90;;;;;;5010295;28;20505;-63
2022/10/14 05:54:00;;;;;;;4.53;3.23;;;12.80;99.90;;;;;;5012273;28;20504;-64
2022/10/14 05:56:27;;;;;;;4.17;3.00;;;12.80;99.90;;;;;;5009995;28;20465;-64
2022/10/14 05:58:55;;;;;;;5.07;2.57;;;12.80;99.90;;;;;;5011963;28;20493;-64
2022/10/14 06:01:23;;;;;;;4.57;2.50;;;12.80;99.90;;;;;;5007907;28;20446;-65
2022/10/14 06:03:50;;;;;;;4.53;3.03;;;12.90;99.90;;;;;;5003180;28;20454;-67
2022/10/14 06:06:18;;;;;;;5.27;2.97;;;12.90;99.90;;;;;;5010772;28;21044;-66
2022/10/14 06:08:45;;;;;;;12.73;3.70;;;13.00;99.90;;;;;;5010205;28;20442;-65
2022/10/14 06:11:12;;;;;;;5.30;4.07;;;13.00;99.90;;;;;;5011064;28;21029;-64
2022/10/14 06:13:39;;;;;;;5.73;2.83;;;13.00;99.90;;;;;;5009032;28;20517;-65
2022/10/14 06:16:09;;;;;;;4.20;2.40;;;13.10;99.90;;;;;;5010044;28;20439;-64
2022/10/14 06:18:37;;;;;;;4.30;2.30;;;13.00;99.90;;;;;;5011316;28;20561;-64
2022/10/14 06:21:05;;;;;;;4.50;2.40;;;13.00;99.90;;;;;;5010311;28;20861;-64
2022/10/14 06:23:32;;;;;;;3.60;2.20;;;13.00;99.90;;;;;;5007111;28;20452;-64
2022/10/14 06:26:02;;;;;;;3.13;2.10;;;13.10;99.90;;;;;;5011491;28;20434;-64
2022/10/14 06:28:29;;;;;;;5.60;2.93;;;13.10;99.90;;;;;;5005401;28;20568;-64
2022/10/14 06:30:56;;;;;;;3.83;2.30;;;13.20;99.90;;;;;;5011605;28;20439;-65
2022/10/14 06:33:25;;;;;;;6.80;2.60;;;13.20;99.90;;;;;;5008918;28;20489;-65
2022/10/14 06:35:52;;;;;;;6.10;3.40;;;13.30;99.90;;;;;;5011109;28;20455;-64
2022/10/14 06:38:19;;;;;;;4.50;2.97;;;13.30;99.90;;;;;;5007660;28;20447;-65
2022/10/14 06:40:46;;;;;;;3.90;2.37;;;13.30;99.90;;;;;;5011140;28;20470;-65
2022/10/14 06:43:13;;;;;;;4.40;2.50;;;13.40;99.90;;;;;;5004562;28;20447;-64
2022/10/14 06:45:39;;;;;;;4.90;2.20;;;13.50;99.90;;;;;;5011173;28;20439;-64
2022/10/14 06:48:07;;;;;;;4.33;2.60;;;13.50;99.90;;;;;;5010236;28;20482;-64
2022/10/14 06:50:36;;;;;;;3.80;2.30;;;13.60;99.90;;;;;;5011370;28;20814;-65
2022/10/14 06:53:03;;;;;;;3.77;2.50;;;13.70;99.90;;;;;;5009821;28;20501;-64
2022/10/14 06:55:32;;;;;;;6.00;2.90;;;13.80;99.90;;;;;;5008247;28;20450;-64
2022/10/14 06:57:59;;;;;;;3.43;2.40;;;14.00;99.90;;;;;;5005223;28;20438;-64
2022/10/14 07:00:26;;;;;;;5.17;3.10;;;14.10;99.90;;;;;;5008553;28;20844;-65
2022/10/14 07:02:53;;;;;;;4.73;3.23;;;14.20;99.90;;;;;;5009253;28;20439;-64
2022/10/14 07:05:20;;;;;;;5.60;2.90;;;14.30;99.90;;;;;;5013943;28;20451;-65
2022/10/14 07:07:48;;;;;;;8.57;4.20;;;14.40;99.90;;;;;;5012900;28;20488;-64
2022/10/14 07:10:16;;;;;;;6.80;2.27;;;14.50;99.90;;;;;;5014781;28;20486;-64
2022/10/14 07:12:42;;;;;;;7.10;3.60;;;14.60;99.90;;;;;;5013122;28;20448;-65
2022/10/14 07:15:10;;;;;;;5.67;2.90;;;14.60;99.90;;;;;;5008680;28;20872;-67
2022/10/14 07:17:38;;;;;;;2.63;2.20;;;14.70;99.90;;;;;;5003962;28;20468;-64
2022/10/14 07:20:06;;;;;;;4.63;2.50;;;14.70;99.90;;;;;;5011430;28;20531;-64
2022/10/14 07:22:35;;;;;;;3.13;1.77;;;14.90;99.90;;;;;;5009930;28;20440;-66
2022/10/14 07:25:04;;;;;;;8.93;2.40;;;15.00;99.90;;;;;;5013118;28;20440;-65
2022/10/14 07:27:31;;;;;;;5.27;2.20;;;15.10;99.90;;;;;;5012460;28;20486;-64
2022/10/14 07:29:58;;;;;;;6.00;2.20;;;15.80;99.90;;;;;;5009952;28;20758;-64
2022/10/14 07:32:25;;;;;;;3.90;2.07;;;17.10;98.60;;;;;;5012999;28;20921;-64
2022/10/14 07:34:52;;;;;;;2.90;2.10;;;18.70;95.60;;;;;;5011388;28;20437;-65
2022/10/14 07:37:19;;;;;;;3.07;1.97;;;21.00;88.20;;;;;;5011052;28;20510;-66
2022/10/14 07:39:46;;;;;;;6.17;4.20;;;23.10;80.50;;;;;;5009822;28;20439;-64
2022/10/14 07:42:14;;;;;;;2.40;1.40;;;25.20;70.80;;;;;;5013184;28;20431;-65
2022/10/14 07:44:41;;;;;;;3.80;1.87;;;26.90;59.50;;;;;;5011946;28;20451;-70
2022/10/14 07:47:08;;;;;;;6.00;2.00;;;28.60;56.50;;;;;;4994523;28;20547;-66
2022/10/14 07:49:35;;;;;;;8.03;3.17;;;29.30;46.90;;;;;;5010030;28;20434;-65
2022/10/14 07:52:02;;;;;;;6.80;2.30;;;28.20;46.70;;;;;;5020645;28;20434;-66
2022/10/14 07:54:31;;;;;;;2.93;1.40;;;26.70;47.70;;;;;;5031746;28;20498;-65
2022/10/14 07:56:58;;;;;;;3.40;1.43;;;25.30;49.60;;;;;;5015476;28;20988;-65
2022/10/14 07:59:27;;;;;;;7.40;4.60;;;24.80;53.20;;;;;;5015796;28;20439;-65
2022/10/14 08:01:55;;;;;;;3.50;2.40;;;25.80;54.60;;;;;;5008677;28;20443;-65
2022/10/14 08:04:23;;;;;;;2.30;1.70;;;27.60;48.00;;;;;;5015840;28;20800;-65
2022/10/14 08:06:51;;;;;;;3.77;1.90;;;28.90;46.40;;;;;;5015654;28;20467;-66
2022/10/14 08:09:18;;;;;;;2.17;1.23;;;30.70;43.60;;;;;;5015422;28;20906;-65
2022/10/14 08:11:46;;;;;;;4.67;1.40;;;32.70;38.90;;;;;;5015664;28;20446;-65
2022/10/14 08:14:13;;;;;;;2.63;1.57;;;34.20;35.20;;;;;;5015666;28;20431;-65
2022/10/14 08:16:42;;;;;;;2.90;1.20;;;35.60;33.40;;;;;;5015274;28;20941;-65
2022/10/14 08:19:11;;;;;;;3.07;1.57;;;36.60;30.60;;;;;;5015452;28;20505;-65
2022/10/14 08:21:38;;;;;;;4.00;1.67;;;37.50;28.40;;;;;;5015449;28;20443;-65
2022/10/14 08:24:05;;;;;;;3.13;1.37;;;38.10;27.10;;;;;;5014907;28;20439;-65
2022/10/14 08:26:35;;;;;;;4.80;1.20;;;38.70;26.50;;;;;;5015296;28;20434;-65
2022/10/14 08:29:03;;;;;;;4.53;1.60;;;39.50;26.80;;;;;;5015093;28;21005;-65
2022/10/14 08:31:31;;;;;;;3.90;1.73;;;40.40;23.70;;;;;;5015035;28;20907;-65
2022/10/14 08:34:00;;;;;;;3.00;1.43;;;40.90;24.10;;;;;;5015266;28;20442;-65
2022/10/14 08:36:27;;;;;;;2.47;1.60;;;41.40;23.20;;;;;;5015074;28;20529;-65
2022/10/14 08:38:54;;;;;;;7.77;2.00;;;41.90;23.60;;;;;;5014786;28;20486;-65
2022/10/14 08:41:37;;;;;;;4.50;2.50;;;42.60;21.70;;;;;;5015159;28;20471;-63
2022/10/14 08:44:16;;;;;;;3.50;1.80;;;43.10;21.70;;;;;;5014831;28;20902;-63
2022/10/14 08:46:46;;;;;;;3.70;1.20;;;43.70;21.10;;;;;;5015187;28;20492;-63
2022/10/14 08:49:22;;;;;;;2.47;0.87;;;44.50;19.80;;;;;;5014975;28;20439;-63
2022/10/14 08:51:52;;;;;;;5.70;1.60;;;45.20;19.50;;;;;;5015086;28;20456;-65
2022/10/14 08:54:27;;;;;;;2.80;1.10;;;45.70;17.80;;;;;;5014701;28;20906;-64
2022/10/14 08:56:55;;;;;;;3.23;1.00;;;45.60;18.60;;;;;;5015002;28;20774;-63
2022/10/14 08:59:25;;;;;;;2.10;1.20;;;45.90;17.90;;;;;;5014696;28;20572;-63
2022/10/14 09:01:54;;;;;;;2.57;1.43;;;46.30;16.80;;;;;;5014619;28;20482;-64
2022/10/14 09:04:22;;;;;;;2.40;1.17;;;46.40;17.20;;;;;;5014379;28;20447;-63
2022/10/14 09:06:51;;;;;;;2.10;0.90;;;46.80;16.00;;;;;;5014860;28;20450;-63
2022/10/14 09:09:24;;;;;;;3.63;1.00;;;46.80;15.70;;;;;;5014613;28;20430;-63
2022/10/14 09:11:56;;;;;;;2.97;1.30;;;47.00;15.40;;;;;;5014401;28;20442;-63
2022/10/14 09:14:26;;;;;;;2.00;1.00;;;47.60;16.30;;;;;;5014517;28;20439;-63
2022/10/14 09:17:01;;;;;;;3.40;1.37;;;47.00;15.80;;;;;;5014409;28;20501;-64
2022/10/14 09:19:33;;;;;;;3.10;1.10;;;45.40;15.60;;;;;;5014320;28;20509;-63
2022/10/14 09:22:01;;;;;;;2.80;0.90;;;43.60;15.80;;;;;;5014549;28;20521;-63
2022/10/14 09:24:34;;;;;;;3.30;1.20;;;41.70;17.20;;;;;;5014235;28;20845;-62
2022/10/14 09:27:05;;;;;;;4.07;1.47;;;40.00;18.20;;;;;;5013534;28;20526;-62
2022/10/14 09:29:36;;;;;;;2.20;1.03;;;37.80;20.10;;;;;;5014206;28;20497;-62
2022/10/14 09:32:06;;;;;;;2.20;1.10;;;36.30;20.90;;;;;;5014225;28;20446;-62
2022/10/14 09:34:37;;;;;;;2.00;1.30;;;35.80;22.80;;;;;;5013829;28;20443;-62
2022/10/14 09:37:22;;;;;;;2.80;0.90;;;35.60;23.30;;;;;;5013688;28;20466;-64
2022/10/14 09:39:51;;;;;;;2.43;0.90;;;35.20;22.80;;;;;;5014104;28;20442;-66
2022/10/14 09:42:21;;;;;;;4.63;0.93;;;34.10;22.80;;;;;;5014147;28;20840;-64
2022/10/14 09:45:05;;;;;;;2.10;0.80;;;33.20;24.20;;;;;;5013981;28;20876;-64
2022/10/14 09:47:35;;;;;;;2.10;0.80;;;31.90;24.30;;;;;;5013420;28;20446;-64
2022/10/14 09:50:09;;;;;;;3.30;0.90;;;30.80;25.00;;;;;;5013827;28;20439;-64
2022/10/14 09:52:37;;;;;;;5.27;0.93;;;29.90;25.80;;;;;;5013614;28;20465;-64
2022/10/14 09:55:08;;;;;;;1.97;0.90;;;29.30;27.50;;;;;;5013707;28;20476;-64
2022/10/14 09:57:35;;;;;;;2.37;0.90;;;28.80;29.10;;;;;;5013769;28;20438;-64
2022/10/14 10:00:05;;;;;;;1.80;0.90;;;28.40;29.10;;;;;;5013643;28;20493;-64
2022/10/14 10:02:40;;;;;;;2.10;0.90;;;27.80;29.90;;;;;;5013661;28;20438;-65
2022/10/14 10:05:22;;;;;;;4.70;1.17;;;27.40;30.90;;;;;;5013844;28;20442;-64
2022/10/14 10:08:01;;;;;;;2.27;0.97;;;27.10;31.40;;;;;;5013628;28;20423;-64
2022/10/14 10:10:29;;;;;;;2.20;0.90;;;27.10;32.00;;;;;;5013356;28;20493;-65
2022/10/14 10:12:57;;;;;;;1.63;0.70;;;27.30;31.50;;;;;;5013138;28;20431;-65
2022/10/14 10:15:24;;;;;;;4.90;0.70;;;27.70;31.90;;;;;;5013148;28;20979;-65
2022/10/14 10:17:52;;;;;;;1.80;0.70;;;28.10;31.20;;;;;;5013373;28;20497;-65
2022/10/14 10:20:27;;;;;;;3.27;1.37;;;28.40;30.20;;;;;;5013063;28;20498;-64
2022/10/14 10:22:55;;;;;;;1.90;0.80;;;29.10;29.50;;;;;;5013656;28;20461;-65
2022/10/14 10:25:26;;;;;;;2.13;1.00;;;29.20;29.40;;;;;;5013373;28;20488;-64
2022/10/14 10:27:55;;;;;;;1.80;0.80;;;29.10;28.50;;;;;;5013449;28;20449;-64
2022/10/14 10:30:26;;;;;;;2.00;0.77;;;28.90;28.30;;;;;;5013347;28;20439;-65
2022/10/14 10:33:07;;;;;;;1.70;0.70;;;28.50;28.00;;;;;;5013366;28;20434;-64
2022/10/14 10:36:00;;;;;;;2.03;0.90;;;28.20;29.00;;;;;;5013214;28;20443;-65
2022/10/14 10:38:33;;;;;;;2.77;0.80;;;27.90;29.40;;;;;;5014974;28;20908;-64
2022/10/14 10:41:15;;;;;;;2.47;0.90;;;27.80;30.60;;;;;;5017430;28;20472;-65
2022/10/14 10:44:03;;;;;;;1.70;0.60;;;27.60;30.40;;;;;;5017283;28;20445;-64
2022/10/14 10:46:45;;;;;;;3.87;0.97;;;27.40;30.90;;;;;;5017295;28;20492;-64
2022/10/14 10:49:22;;;;;;;4.03;0.77;;;27.20;31.80;;;;;;5016982;28;20997;-64
2022/10/14 10:51:56;;;;;;;1.77;0.77;;;26.90;31.30;;;;;;5017163;28;20450;-65
2022/10/14 10:54:34;;;;;;;1.77;0.80;;;27.80;32.50;;;;;;5017194;28;20438;-64
2022/10/14 10:57:07;;;;;;;2.20;1.10;;;28.30;30.20;;;;;;5017170;28;20960;-64
2022/10/14 10:59:55;;;;;;;2.07;1.20;;;29.40;32.50;;;;;;5016732;28;20540;-64
2022/10/14 11:02:57;;;;;;;2.17;0.93;;;31.20;29.70;;;;;;5017055;28;20979;-64
2022/10/14 11:05:50;;;;;;;2.13;1.17;;;31.80;26.80;;;;;;5005218;28;20925;-64
2022/10/14 11:14:22;;;;;;;5.63;1.90;;;29.20;29.10;;;;;;5016824;28;20434;-64
2022/10/14 11:16:56;;;;;;;2.50;1.10;;;28.40;30.60;;;;;;5016973;28;20449;-65
2022/10/14 11:19:32;;;;;;;7.10;5.50;;;27.70;31.20;;;;;;5016446;28;20482;-64
2022/10/14 11:22:07;;;;;;;3.73;1.20;;;27.00;31.00;;;;;;5016930;28;20802;-64
2022/10/14 11:24:57;;;;;;;2.10;1.23;;;26.40;32.30;;;;;;5016459;28;20442;-64
2022/10/14 11:27:30;;;;;;;1.90;0.90;;;25.80;33.30;;;;;;5016625;28;20466;-64
2022/10/14 11:30:21;;;;;;;2.13;0.80;;;25.30;34.40;;;;;;5016139;28;20508;-65
2022/10/14 11:33:03;;;;;;;2.77;0.87;;;24.60;35.00;;;;;;5014223;28;20458;-64
2022/10/14 11:35:38;;;;;;;3.27;0.70;;;24.10;36.70;;;;;;5016541;28;20833;-64
2022/10/14 11:38:19;;;;;;;1.97;0.80;;;23.80;37.90;;;;;;5016003;28;20474;-64
2022/10/14 11:40:56;;;;;;;2.33;1.17;;;23.40;37.60;;;;;;5016319;28;20449;-64
2022/10/14 11:43:31;;;;;;;1.80;0.90;;;22.90;39.30;;;;;;5016350;28;20509;-64
2022/10/14 11:46:01;;;;;;;3.20;2.50;;;22.60;40.30;;;;;;5015797;28;20525;-64
2022/10/14 11:48:33;;;;;;;2.13;1.00;;;22.50;40.60;;;;;;5016054;28;20446;-65
2022/10/14 11:51:12;;;;;;;2.27;1.17;;;22.30;40.80;;;;;;5015537;28;20450;-64
2022/10/14 11:53:49;;;;;;;2.50;1.23;;;22.20;41.30;;;;;;5016109;28;20466;-64
2022/10/14 11:56:28;;;;;;;2.80;1.10;;;22.10;42.50;;;;;;5015960;28;20474;-64
2022/10/14 11:58:58;;;;;;;3.50;1.20;;;22.00;43.20;;;;;;5015735;28;20478;-64
2022/10/14 12:01:29;;;;;;;3.53;0.90;;;21.80;43.90;;;;;;5015673;28;20496;-65
2022/10/14 12:04:02;;;;;;;6.60;1.27;;;21.70;42.30;;;;;;5015927;28;20842;-64
2022/10/14 12:06:35;;;;;;;3.10;1.13;;;21.50;42.90;;;;;;5015858;28;20477;-64
2022/10/14 12:09:09;;;;;;;3.23;0.83;;;21.30;42.50;;;;;;5015539;28;20439;-64
2022/10/14 12:11:43;;;;;;;2.70;1.00;;;21.20;43.30;;;;;;5015791;28;20438;-64
2022/10/14 12:14:16;;;;;;;3.30;0.73;;;21.10;44.00;;;;;;5015832;28;20537;-64
2022/10/14 12:16:46;;;;;;;3.33;1.20;;;21.10;43.80;;;;;;5015357;28;20517;-64
2022/10/14 12:19:19;;;;;;;3.17;1.30;;;21.00;44.40;;;;;;5015016;28;20479;-63
2022/10/14 12:21:52;;;;;;;3.27;1.53;;;20.90;44.70;;;;;;5015644;28;20439;-64
2022/10/14 12:24:21;;;;;;;6.83;2.77;;;20.80;45.30;;;;;;5015336;28;20447;-65
2022/10/14 12:26:57;;;;;;;2.57;1.50;;;20.80;45.50;;;;;;5015544;28;20439;-64
2022/10/14 12:29:27;;;;;;;3.10;1.80;;;20.80;45.60;;;;;;5015444;28;20499;-64
2022/10/14 12:32:09;;;;;;;3.90;1.20;;;20.70;46.10;;;;;;5015090;28;20859;-64
2022/10/14 12:34:39;;;;;;;2.63;1.00;;;20.50;46.40;;;;;;5014974;28;20443;-64
2022/10/14 12:37:48;;;;;;;2.77;1.50;;;20.40;46.80;;;;;;5014780;28;20466;-64
2022/10/14 12:40:36;;;;;;;3.37;1.20;;;20.30;47.20;;;;;;5015157;28;20486;-63
2022/10/14 12:43:22;;;;;;;3.00;1.07;;;20.20;47.30;;;;;;5011722;28;20447;-64
2022/10/14 12:45:57;;;;;;;2.97;1.47;;;20.20;47.70;;;;;;5014643;28;20442;-64
2022/10/14 12:48:28;;;;;;;6.77;1.60;;;20.20;48.70;;;;;;5014923;28;20534;-65
2022/10/14 12:51:06;;;;;;;2.73;1.30;;;20.10;48.90;;;;;;5015076;28;20447;-64
2022/10/14 12:53:34;;;;;;;4.30;1.40;;;20.00;49.50;;;;;;5015001;28;20493;-64
2022/10/14 12:56:03;;;;;;;4.73;1.60;;;19.90;50.20;;;;;;5014795;28;20509;-64
2022/10/14 12:58:35;;;;;;;2.60;1.00;;;19.90;50.80;;;;;;5014850;28;20674;-64
2022/10/14 13:01:05;;;;;;;2.37;1.10;;;19.80;51.40;;;;;;5014248;28;20497;-64
2022/10/14 13:03:36;;;;;;;3.27;1.20;;;19.80;52.10;;;;;;5014573;28;20483;-64
2022/10/14 13:06:38;;;;;;;3.90;1.10;;;19.70;52.90;;;;;;5014728;28;20441;-64
2022/10/14 13:09:39;;;;;;;2.10;0.80;;;19.70;54.00;;;;;;4992781;28;20454;-64
2022/10/14 13:12:43;;;;;;;2.30;1.10;;;19.60;53.80;;;;;;5014670;28;20489;-64